KEWB/EWB METAR and TAF weather

Enter ICAO airport designator
Station Type Date Time Source
KEWB METAR 2019/10/15 02:53 UTC NOAA

KEWB 150253Z AUTO 24004KT 10SM CLR 14/13 A2998 RMK AO2 SLP153 T01390128 51015


Station Type Date Time Source
KEWB Decoded METAR 2019/10/15 02:53 UTC NOAA

NEW BEDFORD REGIONAL AIRPORT, MA, United States (KEWB) 41-41N 070-58W 23M
Oct 14, 2019 - 10:53 PM EDT / 2019.10.15 0253 UTC
Wind: from the WSW (240 degrees) at 5 MPH (4 KT):0
Visibility: 10 mile(s):0
Sky conditions: clear
Temperature: 57.0 F (13.9 C)
Dew Point: 55.0 F (12.8 C)
Relative Humidity: 93%
Pressure (altimeter): 29.98 in. Hg (1015 hPa)
Pressure tendency: 0.04 inches (1.5 hPa) higher than three hours ago
ob: KEWB 150253Z AUTO 24004KT 10SM CLR 14/13 A2998 RMK AO2 SLP153 T01390128 51015
cycle: 3

Station Type Date Time Source
KEWB TAF UTC NOAA

Error!

Example: see airport list